createdAt,value
2017-11-20T00:00:55.947Z,3.50
2017-11-20T00:03:23.575Z,3.40
2017-11-20T00:05:51.191Z,3.50
2017-11-20T00:08:19.608Z,3.40
2017-11-20T00:10:47.219Z,3.40
2017-11-20T00:13:14.877Z,3.40
2017-11-20T00:15:42.517Z,3.50
2017-11-20T00:18:10.147Z,3.40
2017-11-20T00:20:38.559Z,3.40
2017-11-20T00:23:06.173Z,3.30
2017-11-20T00:25:33.832Z,3.40
2017-11-20T00:28:01.461Z,3.40
2017-11-20T00:30:29.076Z,3.40
2017-11-20T00:32:56.739Z,3.40
2017-11-20T00:35:25.126Z,3.40
2017-11-20T00:37:52.778Z,3.40
2017-11-20T00:40:20.395Z,3.40
2017-11-20T00:42:48.793Z,3.40
2017-11-20T00:45:16.440Z,3.40
2017-11-20T00:47:44.065Z,3.40
2017-11-20T00:50:11.717Z,3.40
2017-11-20T00:52:39.331Z,3.40
2017-11-20T00:55:06.953Z,3.40
2017-11-20T00:57:34.605Z,3.40
2017-11-20T01:00:02.228Z,3.40
2017-11-20T01:02:29.885Z,3.40
2017-11-20T01:04:57.508Z,3.40
2017-11-20T01:07:25.147Z,3.40
2017-11-20T01:09:52.795Z,3.40
2017-11-20T01:12:20.415Z,3.30
2017-11-20T01:14:48.846Z,3.30
2017-11-20T01:17:16.455Z,3.20
2017-11-20T01:19:44.076Z,3.30
2017-11-20T01:22:12.483Z,3.20
2017-11-20T01:24:40.099Z,3.20
2017-11-20T01:27:07.739Z,3.20
2017-11-20T01:29:36.120Z,3.10
2017-11-20T01:32:03.746Z,3.10
2017-11-20T01:34:32.157Z,3.10
2017-11-20T01:36:59.771Z,3.00
2017-11-20T01:39:27.421Z,3.10
2017-11-20T01:41:55.040Z,3.00
2017-11-20T01:44:23.414Z,3.00
2017-11-20T01:46:51.824Z,3.00
2017-11-20T01:49:19.444Z,3.00
2017-11-20T01:51:47.091Z,3.00
2017-11-20T01:54:14.713Z,3.00
2017-11-20T01:56:43.100Z,3.10
2017-11-20T01:59:10.749Z,3.00
2017-11-20T02:01:38.363Z,3.10
2017-11-20T02:04:06.787Z,3.10
2017-11-20T02:06:34.399Z,3.00
2017-11-20T02:09:02.047Z,3.10
2017-11-20T02:11:29.701Z,3.10
2017-11-20T02:13:57.312Z,3.10
2017-11-20T02:16:24.955Z,3.20
2017-11-20T02:18:53.330Z,3.30
2017-11-20T02:21:21.727Z,3.30
2017-11-20T02:23:49.465Z,3.30
2017-11-20T02:26:17.090Z,3.30
2017-11-20T02:28:45.508Z,3.30
2017-11-20T02:31:13.147Z,3.30
2017-11-20T02:33:40.775Z,3.40
2017-11-20T02:36:08.424Z,3.40
2017-11-20T02:38:36.088Z,3.40
2017-11-20T02:41:03.734Z,3.50
2017-11-20T02:43:31.352Z,3.40
2017-11-20T02:45:59.039Z,3.50
2017-11-20T02:48:26.684Z,3.50
2017-11-20T02:50:54.306Z,3.50
2017-11-20T02:53:21.964Z,3.60
2017-11-20T02:55:49.585Z,3.60
2017-11-20T02:58:17.223Z,3.60
2017-11-20T03:00:44.890Z,3.60
2017-11-20T03:03:12.508Z,3.60
2017-11-20T03:05:40.154Z,3.70
2017-11-20T03:08:08.535Z,3.70
2017-11-20T03:10:36.153Z,3.60
2017-11-20T03:13:04.588Z,3.70
2017-11-20T03:15:32.223Z,3.70
2017-11-20T03:17:59.891Z,3.80
2017-11-20T03:20:27.506Z,3.80
2017-11-20T03:22:55.121Z,3.80
2017-11-20T03:25:22.775Z,3.90
2017-11-20T03:27:50.391Z,3.90
2017-11-20T03:30:18.808Z,4.00
2017-11-20T03:32:46.439Z,3.90
2017-11-20T03:35:14.050Z,4.00
2017-11-20T03:37:42.484Z,4.00
2017-11-20T03:40:10.117Z,3.90
2017-11-20T03:42:37.804Z,4.00
2017-11-20T03:45:05.458Z,4.00
2017-11-20T03:47:33.907Z,4.00
2017-11-20T03:50:01.560Z,3.90
2017-11-20T03:52:29.171Z,4.00
2017-11-20T03:54:56.792Z,4.00
2017-11-20T03:57:24.447Z,3.90
2017-11-20T03:59:52.051Z,4.00
2017-11-20T04:02:20.444Z,3.90
2017-11-20T04:04:48.113Z,3.90
2017-11-20T04:07:15.725Z,3.90
2017-11-20T04:09:43.371Z,3.90
2017-11-20T04:12:11.020Z,3.90
2017-11-20T04:14:38.634Z,3.90
2017-11-20T04:17:06.247Z,4.00
2017-11-20T04:19:33.897Z,3.90
2017-11-20T04:22:01.518Z,3.90
2017-11-20T04:24:29.136Z,4.00
2017-11-20T04:26:56.781Z,4.00
2017-11-20T04:29:25.173Z,3.90
2017-11-20T04:31:52.841Z,3.90
2017-11-20T04:34:20.475Z,4.00
2017-11-20T04:36:48.099Z,4.00
2017-11-20T04:39:15.715Z,4.00
2017-11-20T04:41:43.367Z,4.00
2017-11-20T04:44:10.983Z,4.00
2017-11-20T04:46:38.624Z,4.00
2017-11-20T04:49:06.244Z,4.00
2017-11-20T04:51:33.863Z,3.90
2017-11-20T04:54:02.291Z,3.90
2017-11-20T04:56:29.911Z,3.90
2017-11-20T04:58:57.554Z,3.90
2017-11-20T05:01:25.174Z,3.90
2017-11-20T05:03:52.835Z,3.80
2017-11-20T05:06:20.479Z,3.90
2017-11-20T05:08:48.107Z,3.90
2017-11-20T05:11:15.790Z,3.90
2017-11-20T05:13:43.408Z,3.90
2017-11-20T05:16:11.042Z,3.90
2017-11-20T05:18:39.450Z,3.90
2017-11-20T05:21:07.085Z,3.90
2017-11-20T05:23:34.731Z,3.90
2017-11-20T05:26:02.353Z,4.00
2017-11-20T05:28:30.740Z,4.00
2017-11-20T05:30:58.416Z,3.90
2017-11-20T05:33:26.031Z,4.00
2017-11-20T05:35:53.679Z,4.00
2017-11-20T05:38:21.291Z,4.00
2017-11-20T05:40:49.694Z,4.00
2017-11-20T05:43:17.342Z,3.90
2017-11-20T05:45:44.951Z,4.00
2017-11-20T05:48:13.394Z,4.00
2017-11-20T05:50:41.007Z,3.90
2017-11-20T05:53:08.749Z,4.00
2017-11-20T05:55:36.410Z,4.00
2017-11-20T05:58:04.041Z,4.00
2017-11-20T06:00:31.695Z,3.90
2017-11-20T06:02:59.308Z,3.90
2017-11-20T06:05:27.836Z,3.90
2017-11-20T06:07:55.484Z,3.90
2017-11-20T06:10:23.116Z,3.90
2017-11-20T06:12:50.777Z,3.90
2017-11-20T06:15:18.391Z,3.90
2017-11-20T06:17:46.005Z,3.90
2017-11-20T06:20:13.647Z,3.90
2017-11-20T06:22:42.023Z,3.90
2017-11-20T06:25:09.683Z,3.80
2017-11-20T06:27:37.311Z,3.80
2017-11-20T06:30:05.696Z,3.60
2017-11-20T06:32:33.358Z,3.50
2017-11-20T06:35:00.972Z,3.60
2017-11-20T06:37:28.623Z,3.60
2017-11-20T06:39:56.263Z,3.60
2017-11-20T06:42:23.878Z,3.60
2017-11-20T06:44:51.690Z,3.60
2017-11-20T06:47:19.307Z,3.60
2017-11-20T06:49:46.958Z,3.60
2017-11-20T06:52:14.594Z,3.60
2017-11-20T06:54:42.990Z,3.70
2017-11-20T06:57:10.638Z,3.60
2017-11-20T06:59:38.386Z,3.70
2017-11-20T07:02:06.022Z,3.70
2017-11-20T07:04:33.647Z,3.70
2017-11-20T07:07:02.035Z,3.70
2017-11-20T07:09:29.679Z,3.60
2017-11-20T07:11:57.301Z,3.60
2017-11-20T07:14:25.725Z,3.60
2017-11-20T07:16:53.364Z,3.50
2017-11-20T07:19:20.985Z,3.60
2017-11-20T07:21:48.635Z,3.50
2017-11-20T07:24:16.256Z,3.50
2017-11-20T07:26:55.852Z,3.50
2017-11-20T07:29:35.432Z,3.60
2017-11-20T07:32:03.093Z,3.60
2017-11-20T07:34:42.519Z,3.50
2017-11-20T07:37:22.041Z,3.50
2017-11-20T07:40:01.779Z,3.50
2017-11-20T07:42:29.421Z,3.50
2017-11-20T07:44:57.155Z,3.50
2017-11-20T07:47:24.816Z,3.50
2017-11-20T07:49:52.451Z,3.50
2017-11-20T07:52:20.079Z,3.60
2017-11-20T07:54:47.726Z,3.70
2017-11-20T07:57:15.341Z,3.70
2017-11-20T07:59:43.754Z,3.80
2017-11-20T08:02:11.374Z,3.70
2017-11-20T08:04:39.054Z,3.90
2017-11-20T08:07:06.699Z,4.00
2017-11-20T08:09:34.381Z,3.90
2017-11-20T08:12:02.036Z,3.90
2017-11-20T08:14:30.423Z,3.90
2017-11-20T08:16:58.042Z,3.90
2017-11-20T08:19:26.468Z,3.90
2017-11-20T08:21:54.095Z,3.90
2017-11-20T08:24:21.738Z,4.00
2017-11-20T08:26:49.358Z,4.10
2017-11-20T08:29:16.990Z,4.10
2017-11-20T08:31:44.641Z,4.20
2017-11-20T08:34:13.039Z,4.20
2017-11-20T08:36:40.697Z,4.20
2017-11-20T08:39:08.312Z,4.30
2017-11-20T08:41:36.707Z,4.40
2017-11-20T08:44:04.398Z,4.30
2017-11-20T08:46:32.034Z,4.40
2017-11-20T08:48:59.704Z,4.40
2017-11-20T08:51:28.090Z,4.30
2017-11-20T08:53:55.743Z,4.30
2017-11-20T08:56:23.397Z,4.30
2017-11-20T08:58:51.032Z,4.40
2017-11-20T09:01:18.711Z,4.40
2017-11-20T09:03:46.323Z,4.40
2017-11-20T09:06:13.968Z,4.40
2017-11-20T09:08:41.582Z,4.40
2017-11-20T09:11:09.200Z,4.50
2017-11-20T09:13:36.853Z,4.50
2017-11-20T09:16:04.473Z,4.50
2017-11-20T09:18:32.114Z,4.50
2017-11-20T09:20:59.742Z,4.50
2017-11-20T09:23:27.352Z,4.60
2017-11-20T09:25:54.999Z,4.70
2017-11-20T09:28:22.623Z,4.60
2017-11-20T09:30:50.267Z,4.60
2017-11-20T09:33:17.900Z,4.70
2017-11-20T09:35:45.514Z,4.80
2017-11-20T09:38:13.939Z,4.80
2017-11-20T09:40:41.559Z,4.70
2017-11-20T09:43:09.175Z,4.80
2017-11-20T09:45:36.842Z,4.80
2017-11-20T09:48:04.454Z,4.70
2017-11-20T09:50:32.107Z,4.70
2017-11-20T09:53:00.498Z,4.70
2017-11-20T09:55:28.111Z,4.70
2017-11-20T09:57:56.533Z,4.70
2017-11-20T10:00:24.142Z,4.70
2017-11-20T10:02:51.784Z,4.70
2017-11-20T10:05:19.419Z,4.70
2017-11-20T10:07:47.803Z,4.60
2017-11-20T10:10:15.452Z,4.60
2017-11-20T10:12:43.076Z,4.70
2017-11-20T10:15:10.715Z,4.70
2017-11-20T10:17:39.114Z,4.80
2017-11-20T10:22:40.668Z,4.80
2017-11-20T10:25:08.297Z,4.80
2017-11-20T10:27:35.953Z,4.80
2017-11-20T10:30:03.613Z,4.90
2017-11-20T10:32:31.245Z,4.90
2017-11-20T10:34:58.921Z,5.00
2017-11-20T10:37:26.550Z,4.90
2017-11-20T10:39:54.164Z,4.90
2017-11-20T10:42:21.819Z,5.00
2017-11-20T10:44:49.466Z,5.10
2017-11-20T10:47:17.106Z,5.10
2017-11-20T10:49:44.736Z,5.20
2017-11-20T10:52:13.145Z,5.00
2017-11-20T10:54:40.792Z,4.90
2017-11-20T10:57:08.419Z,4.90
2017-11-20T10:59:36.370Z,4.90
2017-11-20T11:02:03.978Z,4.80
2017-11-20T11:04:32.379Z,4.80
2017-11-20T11:07:00.035Z,4.70
2017-11-20T11:09:27.649Z,4.90
2017-11-20T11:11:55.297Z,4.90
2017-11-20T11:14:23.684Z,4.90
2017-11-20T11:16:51.305Z,4.90
2017-11-20T11:19:19.727Z,4.80
2017-11-20T11:21:47.345Z,4.80
2017-11-20T11:24:14.979Z,4.80
2017-11-20T11:26:42.671Z,4.80
2017-11-20T11:29:10.308Z,4.70
2017-11-20T11:31:37.977Z,4.70
2017-11-20T11:34:05.597Z,4.70
2017-11-20T11:36:33.250Z,4.70
2017-11-20T11:39:00.867Z,4.70
2017-11-20T11:41:28.513Z,4.70
2017-11-20T11:43:56.166Z,4.70
2017-11-20T11:46:23.806Z,4.70
2017-11-20T11:48:51.448Z,4.60
2017-11-20T11:51:19.062Z,4.60
2017-11-20T11:53:47.448Z,4.60
2017-11-20T11:56:15.143Z,4.60
2017-11-20T11:58:42.782Z,4.60
2017-11-20T12:01:11.214Z,4.60
2017-11-20T12:03:38.820Z,4.60
2017-11-20T12:06:06.423Z,4.60
2017-11-20T12:08:34.835Z,4.50
2017-11-20T12:11:02.468Z,4.50
2017-11-20T12:13:30.120Z,4.50
2017-11-20T12:15:57.787Z,4.40
2017-11-20T12:18:25.421Z,4.40
2017-11-20T12:20:53.067Z,4.40
2017-11-20T12:23:20.692Z,4.50
2017-11-20T12:25:48.382Z,4.50
2017-11-20T12:28:16.001Z,4.50
2017-11-20T12:30:43.621Z,4.50
2017-11-20T12:33:11.273Z,4.50
2017-11-20T12:35:38.904Z,4.40
2017-11-20T12:38:06.544Z,4.30
2017-11-20T12:40:35.036Z,4.40
2017-11-20T12:43:02.662Z,4.30
2017-11-20T12:45:31.067Z,4.20
2017-11-20T12:47:58.720Z,4.20
2017-11-20T12:50:26.362Z,4.20
2017-11-20T12:52:53.968Z,4.20
2017-11-20T12:55:22.340Z,4.30
2017-11-20T12:57:50.769Z,4.40
2017-11-20T13:00:18.383Z,4.30
2017-11-20T13:02:46.037Z,4.40
2017-11-20T13:05:13.662Z,4.50
2017-11-20T13:07:41.308Z,4.40
2017-11-20T13:10:08.968Z,4.40
2017-11-20T13:12:36.598Z,4.40
2017-11-20T13:15:04.258Z,4.40
2017-11-20T13:17:32.451Z,4.40
2017-11-20T13:20:00.078Z,4.40
2017-11-20T13:22:27.747Z,4.40
2017-11-20T13:24:55.368Z,4.50
2017-11-20T13:27:23.036Z,4.50
2017-11-20T13:29:50.698Z,4.60
2017-11-20T13:32:19.230Z,4.50
2017-11-20T13:34:46.891Z,4.50
2017-11-20T13:37:14.528Z,4.50
2017-11-20T13:39:42.188Z,4.50
2017-11-20T13:42:09.877Z,4.50
2017-11-20T13:44:37.500Z,4.60
2017-11-20T13:47:05.924Z,4.60
2017-11-20T13:49:33.570Z,4.60
2017-11-20T13:52:01.228Z,4.60
2017-11-20T13:54:28.864Z,4.60
2017-11-20T13:56:56.495Z,4.60
2017-11-20T13:59:24.154Z,4.70
2017-11-20T14:01:51.791Z,4.60
2017-11-20T14:04:19.448Z,4.60
2017-11-20T14:06:47.137Z,4.60
2017-11-20T14:09:14.787Z,4.60
2017-11-20T14:11:42.459Z,4.60
2017-11-20T14:14:10.100Z,4.60
2017-11-20T14:16:37.752Z,4.60
2017-11-20T14:19:05.423Z,4.60
2017-11-20T14:21:33.039Z,4.60
2017-11-20T14:24:00.700Z,4.60
2017-11-20T14:26:28.321Z,4.60
2017-11-20T14:28:55.971Z,4.60
2017-11-20T14:31:23.587Z,4.60
2017-11-20T14:33:51.210Z,4.60
2017-11-20T14:36:18.883Z,4.50
2017-11-20T14:38:46.520Z,4.60
2017-11-20T14:41:14.167Z,4.60
2017-11-20T14:43:41.861Z,4.50
2017-11-20T14:46:09.522Z,4.50
2017-11-20T14:48:37.991Z,4.50
2017-11-20T14:54:20.404Z,4.50
2017-11-20T14:56:48.055Z,4.50
2017-11-20T14:59:15.669Z,4.50
2017-11-20T15:01:44.218Z,4.50
2017-11-20T15:04:11.879Z,4.50
2017-11-20T15:06:39.530Z,4.50
2017-11-20T15:09:07.176Z,4.50
2017-11-20T15:11:34.785Z,4.50
2017-11-20T15:14:03.204Z,4.40
2017-11-20T15:16:30.850Z,4.40
2017-11-20T15:18:58.623Z,4.40
2017-11-20T15:21:26.272Z,4.40
2017-11-20T15:23:53.875Z,4.30
2017-11-20T15:26:21.502Z,4.30
2017-11-20T15:28:49.150Z,4.30
2017-11-20T15:31:16.767Z,4.30
2017-11-20T15:33:44.447Z,4.30
2017-11-20T15:36:12.061Z,4.20
2017-11-20T15:38:39.678Z,4.20
2017-11-20T15:41:07.318Z,4.20
2017-11-20T15:43:34.935Z,4.10
2017-11-20T15:46:02.576Z,4.10
2017-11-20T15:48:30.192Z,4.10
2017-11-20T15:50:57.820Z,4.10
2017-11-20T15:53:25.507Z,4.10
2017-11-20T15:55:53.884Z,4.00
2017-11-20T15:58:21.527Z,4.00
2017-11-20T16:00:49.133Z,4.00
2017-11-20T16:03:16.747Z,4.00
2017-11-20T16:05:44.442Z,4.00
2017-11-20T16:08:12.842Z,3.90
2017-11-20T16:10:40.515Z,3.90
2017-11-20T16:13:08.137Z,4.00
2017-11-20T16:15:35.769Z,4.00
2017-11-20T16:18:03.398Z,4.00
2017-11-20T16:20:32.124Z,3.90
2017-11-20T16:22:59.774Z,3.90
2017-11-20T16:25:27.394Z,3.90
2017-11-20T16:27:55.008Z,3.90
2017-11-20T16:30:22.664Z,3.80
2017-11-20T16:32:50.295Z,3.90
2017-11-20T16:35:18.728Z,4.00
2017-11-20T16:37:46.345Z,3.90
2017-11-20T16:40:13.971Z,3.90
2017-11-20T16:42:43.792Z,3.90
2017-11-20T16:45:11.408Z,3.90
2017-11-20T16:47:39.819Z,3.80
2017-11-20T16:50:07.433Z,3.80
2017-11-20T16:52:35.055Z,3.80
2017-11-20T16:55:03.463Z,3.90
2017-11-20T16:57:42.830Z,3.80
2017-11-20T17:00:23.182Z,3.80
2017-11-20T17:03:05.830Z,3.80
2017-11-20T17:05:33.471Z,3.80
2017-11-20T17:08:01.103Z,3.80
2017-11-20T17:10:28.720Z,3.80
2017-11-20T17:12:56.376Z,3.80
2017-11-20T17:15:23.990Z,3.80
2017-11-20T17:17:51.607Z,3.80
2017-11-20T17:20:19.272Z,3.80
2017-11-20T17:22:46.903Z,3.80
2017-11-20T17:25:14.518Z,3.80
2017-11-20T17:27:42.198Z,3.80
2017-11-20T17:30:09.817Z,3.80
2017-11-20T17:32:37.467Z,3.80
2017-11-20T17:35:05.097Z,3.70
2017-11-20T17:37:32.715Z,3.70
2017-11-20T17:40:00.357Z,3.70
2017-11-20T17:42:28.248Z,3.70
2017-11-20T17:44:55.890Z,3.80
2017-11-20T17:47:23.536Z,3.70
2017-11-20T17:49:51.174Z,3.80
2017-11-20T17:52:18.828Z,3.70
2017-11-20T17:54:46.462Z,3.70
2017-11-20T17:57:14.114Z,3.70
2017-11-20T17:59:41.731Z,3.70
2017-11-20T18:02:09.431Z,3.80
2017-11-20T18:04:37.076Z,3.70
2017-11-20T18:07:04.727Z,3.70
2017-11-20T18:09:32.379Z,3.70
2017-11-20T18:12:00.181Z,3.60
2017-11-20T18:14:27.799Z,3.70
2017-11-20T18:16:55.440Z,3.70
2017-11-20T18:19:23.821Z,3.60
2017-11-20T18:21:51.459Z,3.50
2017-11-20T18:24:19.068Z,3.60
2017-11-20T18:26:46.695Z,3.60
2017-11-20T18:29:14.343Z,3.60
2017-11-20T18:31:41.969Z,3.60
2017-11-20T18:34:10.510Z,3.60
2017-11-20T18:36:38.181Z,3.60
2017-11-20T18:39:05.816Z,3.60
2017-11-20T18:41:33.483Z,3.60
2017-11-20T18:44:01.119Z,3.60
2017-11-20T18:46:28.839Z,3.60
2017-11-20T18:48:56.482Z,3.60
2017-11-20T18:51:24.120Z,3.60
2017-11-20T18:53:52.533Z,3.60
2017-11-20T18:56:20.165Z,3.50
2017-11-20T18:58:48.352Z,3.60
2017-11-20T19:01:27.782Z,3.50
2017-11-20T19:04:07.359Z,3.50
2017-11-20T19:06:46.759Z,3.50
2017-11-20T19:09:15.183Z,3.50
2017-11-20T19:11:45.955Z,3.50
2017-11-20T19:14:14.471Z,3.40
2017-11-20T19:16:42.153Z,3.40
2017-11-20T19:19:10.558Z,3.40
2017-11-20T19:21:38.233Z,3.40
2017-11-20T19:24:06.309Z,3.40
2017-11-20T19:26:34.039Z,3.40
2017-11-20T19:29:02.485Z,3.50
2017-11-20T19:31:30.250Z,3.40
2017-11-20T19:33:57.918Z,3.40
2017-11-20T19:36:25.614Z,3.40
2017-11-20T19:38:53.260Z,3.40
2017-11-20T19:41:20.869Z,3.40
2017-11-20T19:43:49.668Z,3.30
2017-11-20T19:46:17.695Z,3.40
2017-11-20T19:48:45.661Z,3.40
2017-11-20T19:51:14.102Z,3.40
2017-11-20T19:53:42.531Z,3.40
2017-11-20T19:56:10.139Z,3.40
2017-11-20T19:58:38.562Z,3.40
2017-11-20T20:01:06.199Z,3.40
2017-11-20T20:03:33.859Z,3.50
2017-11-20T20:06:01.482Z,3.50
2017-11-20T20:08:29.098Z,3.40
2017-11-20T20:10:56.738Z,3.40
2017-11-20T20:13:36.848Z,3.40
2017-11-20T20:16:16.306Z,3.30
2017-11-20T20:18:43.921Z,3.40
2017-11-20T20:21:11.590Z,3.40
2017-11-20T20:23:39.986Z,3.20
2017-11-20T20:26:07.637Z,3.20
2017-11-20T20:28:35.253Z,3.20
2017-11-20T20:31:03.631Z,3.30
2017-11-20T20:33:31.280Z,3.20
2017-11-20T20:35:58.906Z,3.30
2017-11-20T20:38:27.319Z,3.30
2017-11-20T20:40:54.964Z,3.30
2017-11-20T20:43:22.578Z,3.30
2017-11-20T20:45:50.228Z,3.30
2017-11-20T20:48:17.843Z,3.40
2017-11-20T20:50:46.255Z,3.40
2017-11-20T20:53:13.891Z,3.40
2017-11-20T20:55:41.522Z,3.40
2017-11-20T20:58:10.447Z,3.40
2017-11-20T21:00:38.075Z,3.30
2017-11-20T21:03:05.751Z,3.40
2017-11-20T21:05:33.377Z,3.40
2017-11-20T21:08:00.988Z,3.30
2017-11-20T21:10:34.185Z,3.30
2017-11-20T21:13:01.806Z,3.30
2017-11-20T21:15:29.461Z,3.20
2017-11-20T21:17:57.083Z,3.20
2017-11-20T21:20:24.744Z,3.20
2017-11-20T21:22:52.376Z,3.30
2017-11-20T21:25:20.029Z,3.30
2017-11-20T21:27:48.432Z,3.30
2017-11-20T21:30:16.044Z,3.30
2017-11-20T21:32:43.737Z,3.30
2017-11-20T21:35:11.457Z,3.30
2017-11-20T21:37:39.076Z,3.30
2017-11-20T21:42:41.688Z,3.30
2017-11-20T21:45:09.345Z,3.30
2017-11-20T21:47:38.036Z,3.30
2017-11-20T21:50:05.652Z,3.30
2017-11-20T21:52:33.354Z,3.30
2017-11-20T21:55:01.731Z,3.30
2017-11-20T21:57:29.457Z,3.20
2017-11-20T21:59:57.089Z,3.30
2017-11-20T22:02:24.703Z,3.30
2017-11-20T22:04:52.374Z,3.30
2017-11-20T22:07:20.025Z,3.30
2017-11-20T22:09:47.687Z,3.30
2017-11-20T22:12:16.400Z,3.20
2017-11-20T22:14:44.289Z,3.20
2017-11-20T22:17:12.326Z,3.20
2017-11-20T22:19:39.939Z,3.30
2017-11-20T22:22:07.609Z,3.20
2017-11-20T22:24:35.236Z,3.20
2017-11-20T22:27:02.857Z,3.30
2017-11-20T22:29:31.267Z,3.30
2017-11-20T22:31:58.880Z,3.30
2017-11-20T22:34:26.535Z,3.30
2017-11-20T22:36:54.164Z,3.30
2017-11-20T22:39:21.789Z,3.20
2017-11-20T22:41:49.440Z,3.30
2017-11-20T22:44:17.055Z,3.20
2017-11-20T22:46:44.711Z,3.30
2017-11-20T22:49:13.097Z,3.20
2017-11-20T22:51:40.712Z,3.20
2017-11-20T22:54:08.362Z,3.30
2017-11-20T22:56:36.004Z,3.30
2017-11-20T22:59:03.657Z,3.30
2017-11-20T23:01:32.061Z,3.30
2017-11-20T23:03:59.684Z,3.30
2017-11-20T23:06:28.098Z,3.30
2017-11-20T23:08:55.722Z,3.20
2017-11-20T23:11:23.405Z,3.30
2017-11-20T23:13:51.032Z,3.30
2017-11-20T23:16:18.639Z,3.40
2017-11-20T23:18:46.282Z,3.40
2017-11-20T23:21:13.902Z,3.40
2017-11-20T23:23:42.367Z,3.50
2017-11-20T23:26:09.982Z,3.40
2017-11-20T23:28:37.633Z,3.50
2017-11-20T23:31:05.408Z,3.40
2017-11-20T23:33:33.021Z,3.40
2017-11-20T23:36:00.671Z,3.30
2017-11-20T23:38:28.286Z,3.40
2017-11-20T23:40:55.906Z,3.30
2017-11-20T23:43:24.348Z,3.30
2017-11-20T23:45:51.956Z,3.20
2017-11-20T23:48:19.630Z,3.30
2017-11-20T23:50:47.239Z,3.30
2017-11-20T23:53:27.463Z,3.30
2017-11-20T23:55:55.073Z,3.20
2017-11-20T23:58:22.699Z,3.30
